Time;durP1;ratioP1;P1;durP2;ratioP2;P2;SDS_P1;SDS_P2;PMS_P1;PMS_P2;Temp;Humidity;BMP_temperature;BMP_pressure;BME280_temperature;BME280_humidity;BME280_pressure;Samples;Min_cycle;Max_cycle;Signal;HPM_P1;HPM_P2
2021/09/06 00:01:41;;;;;;;2.28;1.83;;;14.00;67.10;;;;;;5001007;28;20034;-87
2021/09/06 00:04:07;;;;;;;3.25;1.40;;;14.00;67.10;;;;;;5001600;28;20034;-87
2021/09/06 00:06:38;;;;;;;3.47;1.63;;;14.00;67.00;;;;;;5000639;28;20030;-87
2021/09/06 00:09:04;;;;;;;2.70;1.70;;;14.00;67.00;;;;;;4984115;28;20034;-88
2021/09/06 00:11:30;;;;;;;7.13;1.70;;;14.00;67.00;;;;;;4984289;28;20093;-87
2021/09/06 00:13:56;;;;;;;2.95;1.48;;;14.10;66.90;;;;;;5000520;28;20509;-85
2021/09/06 00:16:22;;;;;;;2.03;1.60;;;14.10;66.90;;;;;;5000345;28;20093;-86
2021/09/06 00:18:48;;;;;;;4.13;1.90;;;14.00;66.70;;;;;;5001391;28;20039;-86
2021/09/06 00:21:15;;;;;;;1.73;1.38;;;14.10;66.70;;;;;;5000440;28;20494;-86
2021/09/06 00:23:41;;;;;;;2.03;1.38;;;14.10;66.70;;;;;;5000101;28;20066;-86
2021/09/06 00:26:07;;;;;;;4.75;1.60;;;14.00;66.60;;;;;;4984156;28;20026;-87
2021/09/06 00:28:33;;;;;;;2.22;1.35;;;14.10;66.60;;;;;;4982953;28;20408;-87
2021/09/06 00:30:59;;;;;;;2.63;1.77;;;14.10;66.60;;;;;;5001258;28;20038;-86
2021/09/06 00:33:25;;;;;;;3.35;1.45;;;14.10;66.60;;;;;;5000095;28;20798;-86
2021/09/06 00:35:52;;;;;;;6.25;1.70;;;14.10;66.60;;;;;;4999920;28;20046;-87
2021/09/06 00:38:20;;;;;;;2.15;1.63;;;14.10;66.50;;;;;;5001000;28;20183;-86
2021/09/06 00:40:48;;;;;;;4.00;1.25;;;14.10;67.10;;;;;;4999814;28;20770;-87
2021/09/06 00:43:15;;;;;;;1.98;1.30;;;14.00;66.40;;;;;;5002513;28;20034;-86
2021/09/06 00:45:41;;;;;;;3.67;1.80;;;14.10;66.40;;;;;;5013280;28;20049;-85
2021/09/06 00:48:08;;;;;;;1.77;1.30;;;14.10;66.40;;;;;;4997835;28;20045;-85
2021/09/06 00:50:36;;;;;;;2.67;1.40;;;14.10;66.30;;;;;;5005016;28;20064;-86
2021/09/06 00:53:03;;;;;;;3.78;1.17;;;14.00;66.30;;;;;;5000949;28;20038;-87
2021/09/06 00:55:29;;;;;;;2.75;1.45;;;14.00;66.30;;;;;;4999571;28;20034;-87
2021/09/06 00:57:57;;;;;;;1.60;1.40;;;14.10;66.30;;;;;;4983517;28;20041;-87
2021/09/06 01:00:23;;;;;;;2.72;1.60;;;14.00;66.30;;;;;;5000828;28;20023;-87
2021/09/06 01:02:49;;;;;;;1.80;1.30;;;14.10;66.30;;;;;;4999167;28;20037;-87
2021/09/06 01:05:16;;;;;;;1.92;1.20;;;14.00;66.30;;;;;;5000631;28;20058;-87
2021/09/06 01:08:00;;;;;;;2.85;1.40;;;14.10;66.30;;;;;;4998829;28;20485;-87
2021/09/06 01:10:45;;;;;;;4.45;1.40;;;14.10;66.40;;;;;;5000824;28;20044;-87
2021/09/06 01:13:24;;;;;;;3.30;1.63;;;14.10;66.40;;;;;;4984986;28;20037;-87
2021/09/06 01:15:51;;;;;;;1.67;1.27;;;14.10;66.40;;;;;;4983149;28;20034;-87
2021/09/06 01:18:19;;;;;;;3.35;1.30;;;14.10;66.40;;;;;;4999920;28;20425;-88
2021/09/06 01:20:47;;;;;;;4.05;1.50;;;14.10;66.40;;;;;;4999264;28;20026;-89
2021/09/06 01:23:13;;;;;;;2.35;1.20;;;14.10;66.30;;;;;;4999161;28;20038;-88
2021/09/06 01:25:57;;;;;;;2.35;1.20;;;14.10;66.30;;;;;;4999568;28;20045;-87
2021/09/06 01:28:24;;;;;;;1.58;1.40;;;14.10;66.20;;;;;;4999033;28;20039;-87
2021/09/06 01:30:51;;;;;;;2.00;1.30;;;14.20;66.30;;;;;;5001039;28;20041;-87
2021/09/06 01:33:18;;;;;;;2.50;1.23;;;14.10;66.20;;;;;;4984036;28;20074;-88
2021/09/06 01:35:44;;;;;;;2.58;1.60;;;14.20;66.30;;;;;;4982756;28;20078;-87
2021/09/06 01:38:11;;;;;;;1.52;1.25;;;14.20;66.30;;;;;;4986201;28;20049;-87
2021/09/06 01:40:38;;;;;;;3.47;1.60;;;14.20;66.80;;;;;;5015469;28;20033;-87
2021/09/06 01:43:05;;;;;;;1.70;1.38;;;14.10;66.10;;;;;;5015187;28;20022;-86
2021/09/06 01:45:31;;;;;;;3.47;1.20;;;14.10;66.20;;;;;;5005586;28;20039;-87
2021/09/06 01:47:57;;;;;;;3.85;1.40;;;14.10;66.20;;;;;;4982816;28;20050;-87
2021/09/06 01:50:25;;;;;;;2.05;1.30;;;14.10;66.10;;;;;;4981594;28;20038;-87
2021/09/06 01:52:54;;;;;;;3.05;1.30;;;14.10;66.10;;;;;;4998610;28;20493;-87
2021/09/06 01:55:21;;;;;;;1.98;1.30;;;14.10;66.10;;;;;;4999954;28;20093;-87
2021/09/06 01:57:52;;;;;;;2.78;1.25;;;14.10;66.10;;;;;;4998678;28;20026;-87
2021/09/06 02:00:20;;;;;;;1.48;1.38;;;14.10;66.00;;;;;;4998415;28;20042;-87
2021/09/06 02:02:47;;;;;;;1.88;1.20;;;14.10;66.60;;;;;;4998267;28;20022;-88
2021/09/06 02:05:17;;;;;;;1.77;1.50;;;14.10;66.00;;;;;;4982627;28;20034;-87
2021/09/06 02:07:51;;;;;;;1.45;1.10;;;14.10;65.90;;;;;;4983073;28;20031;-86
2021/09/06 02:10:18;;;;;;;1.88;1.38;;;14.10;65.90;;;;;;4998449;28;20125;-86
2021/09/06 02:12:44;;;;;;;2.97;1.20;;;14.10;65.80;;;;;;4998331;28;20092;-87
2021/09/06 02:15:15;;;;;;;4.05;1.38;;;14.10;65.70;;;;;;4982546;28;20045;-86
2021/09/06 02:17:42;;;;;;;2.38;1.25;;;14.10;65.70;;;;;;4982261;28;20034;-87
2021/09/06 02:20:09;;;;;;;2.90;1.27;;;14.10;65.60;;;;;;4997960;28;20036;-87
2021/09/06 02:22:35;;;;;;;2.58;1.42;;;14.10;65.50;;;;;;4981742;28;20118;-87
2021/09/06 02:25:03;;;;;;;2.15;1.30;;;14.10;65.50;;;;;;4998021;28;20037;-87
2021/09/06 02:27:33;;;;;;;2.72;1.55;;;14.10;66.00;;;;;;4982289;28;20038;-87
2021/09/06 02:30:08;;;;;;;4.53;1.65;;;14.00;65.30;;;;;;4999447;28;20041;-89
2021/09/06 02:32:34;;;;;;;1.27;1.13;;;14.10;66.00;;;;;;4982442;28;20034;-85
2021/09/06 02:35:22;;;;;;;2.90;1.48;;;14.10;65.30;;;;;;5012686;28;20113;-84
2021/09/06 02:37:48;;;;;;;2.35;1.48;;;14.00;65.20;;;;;;5014164;28;20015;-83
2021/09/06 02:40:17;;;;;;;2.55;1.20;;;14.00;65.20;;;;;;4995292;28;20034;-84
2021/09/06 02:42:46;;;;;;;1.98;1.15;;;14.00;65.20;;;;;;4982263;28;20085;-84
2021/09/06 02:45:12;;;;;;;2.85;1.48;;;14.00;65.20;;;;;;4981600;28;20065;-83
2021/09/06 02:47:48;;;;;;;1.70;1.50;;;14.00;65.20;;;;;;4997642;28;20081;-83
2021/09/06 02:50:15;;;;;;;1.77;1.40;;;13.90;65.20;;;;;;4980681;28;20129;-84
2021/09/06 02:52:42;;;;;;;1.77;1.38;;;14.00;65.20;;;;;;4981475;28;20101;-84
2021/09/06 02:55:09;;;;;;;2.65;1.60;;;14.00;65.30;;;;;;4981292;28;20092;-84
2021/09/06 02:57:39;;;;;;;3.55;1.20;;;14.00;65.30;;;;;;4997607;28;20073;-85
2021/09/06 03:00:06;;;;;;;2.15;1.38;;;13.90;65.30;;;;;;4981038;28;20073;-84
2021/09/06 03:02:33;;;;;;;2.45;1.33;;;13.90;65.20;;;;;;4997767;28;20036;-85
2021/09/06 03:05:02;;;;;;;1.15;1.05;;;13.90;65.10;;;;;;4981286;28;20034;-84
2021/09/06 03:07:28;;;;;;;2.90;1.85;;;14.00;65.20;;;;;;4980795;28;20030;-88
2021/09/06 03:09:54;;;;;;;3.75;1.30;;;13.90;65.10;;;;;;4997311;28;20035;-86
2021/09/06 03:12:20;;;;;;;1.33;1.08;;;14.00;65.20;;;;;;4997496;28;20386;-86
2021/09/06 03:14:47;;;;;;;3.22;1.60;;;14.00;65.10;;;;;;4981637;28;20034;-86
2021/09/06 03:17:13;;;;;;;4.13;1.60;;;14.00;65.10;;;;;;5002534;28;20034;-90
2021/09/06 03:19:39;;;;;;;2.15;1.30;;;13.90;65.10;;;;;;5000708;28;20030;-87
2021/09/06 03:22:08;;;;;;;2.25;0.98;;;14.00;65.30;;;;;;4997282;28;20084;-86
2021/09/06 03:24:34;;;;;;;1.80;1.27;;;14.00;65.30;;;;;;4981930;28;20042;-87
2021/09/06 03:27:01;;;;;;;2.58;1.48;;;14.00;65.40;;;;;;4998777;28;20093;-89
2021/09/06 03:29:27;;;;;;;2.17;1.40;;;14.00;65.40;;;;;;5011079;28;20097;-87
2021/09/06 03:31:53;;;;;;;4.75;1.30;;;14.00;65.40;;;;;;4997214;28;20030;-88
2021/09/06 03:34:20;;;;;;;1.88;1.42;;;14.10;65.50;;;;;;5001691;28;20046;-88
2021/09/06 03:36:48;;;;;;;5.07;1.52;;;14.10;65.50;;;;;;5006470;28;20394;-89
2021/09/06 03:39:19;;;;;;;2.38;1.17;;;14.10;65.40;;;;;;4986635;28;20034;-87
2021/09/06 03:41:46;;;;;;;2.58;1.45;;;14.10;65.40;;;;;;4985208;28;20120;-88
2021/09/06 03:44:16;;;;;;;1.48;1.30;;;14.10;65.40;;;;;;4985791;28;20104;-88
2021/09/06 03:46:44;;;;;;;2.05;1.33;;;14.10;65.40;;;;;;4985458;28;20030;-87
2021/09/06 03:49:10;;;;;;;1.30;1.20;;;14.10;65.40;;;;;;4983725;28;20034;-87
2021/09/06 03:51:39;;;;;;;2.45;1.35;;;14.10;65.50;;;;;;4985088;28;20034;-88
2021/09/06 03:54:05;;;;;;;2.47;1.42;;;14.10;65.40;;;;;;4984958;28;20038;-88
2021/09/06 03:56:31;;;;;;;4.10;1.42;;;14.10;66.10;;;;;;5002790;28;20042;-87
2021/09/06 03:58:58;;;;;;;2.65;1.77;;;14.20;65.50;;;;;;5000508;28;20042;-87
2021/09/06 04:01:24;;;;;;;2.55;1.45;;;14.20;65.60;;;;;;5000898;28;20028;-87
2021/09/06 04:03:50;;;;;;;2.92;1.60;;;14.20;65.60;;;;;;5000419;28;20493;-88
2021/09/06 04:06:16;;;;;;;1.50;1.40;;;14.20;65.70;;;;;;4983913;28;20408;-87
2021/09/06 04:08:43;;;;;;;2.17;1.52;;;14.20;65.70;;;;;;5000655;28;20070;-86
2021/09/06 04:11:11;;;;;;;4.10;1.83;;;14.20;65.70;;;;;;5001555;28;20042;-86
2021/09/06 04:13:37;;;;;;;2.67;1.95;;;14.20;65.80;;;;;;4983570;28;20038;-86
2021/09/06 04:16:04;;;;;;;3.92;1.73;;;14.20;65.80;;;;;;5000627;28;20030;-86
2021/09/06 04:18:34;;;;;;;2.38;1.50;;;14.20;65.80;;;;;;5000508;28;20053;-86
2021/09/06 04:21:04;;;;;;;5.03;1.80;;;14.30;65.80;;;;;;4984272;28;20042;-85
2021/09/06 04:23:31;;;;;;;3.08;1.90;;;14.30;65.80;;;;;;5004889;28;20520;-86
2021/09/06 04:26:00;;;;;;;4.32;1.70;;;14.30;65.80;;;;;;4998438;28;20018;-86
2021/09/06 04:28:30;;;;;;;2.67;1.60;;;14.30;65.80;;;;;;5001830;28;20049;-86
2021/09/06 04:30:57;;;;;;;3.92;1.65;;;14.30;65.80;;;;;;5005829;28;20081;-86
2021/09/06 04:33:29;;;;;;;3.17;1.85;;;14.30;65.80;;;;;;4984910;28;20140;-86
2021/09/06 04:35:57;;;;;;;4.10;1.67;;;14.40;65.80;;;;;;5000690;28;20038;-88
2021/09/06 04:38:25;;;;;;;3.58;1.60;;;14.40;65.80;;;;;;4985611;28;20030;-88
2021/09/06 04:40:51;;;;;;;5.28;2.00;;;14.40;65.80;;;;;;5001603;28;20057;-87
2021/09/06 04:43:17;;;;;;;2.13;1.33;;;14.40;65.80;;;;;;5000817;28;20026;-88
2021/09/06 04:45:43;;;;;;;3.50;1.70;;;14.40;65.80;;;;;;4985991;28;20026;-89
2021/09/06 04:48:10;;;;;;;4.20;2.15;;;14.50;65.80;;;;;;4985771;28;20121;-88
2021/09/06 04:50:36;;;;;;;4.43;1.73;;;14.50;65.80;;;;;;5001963;28;20529;-88
2021/09/06 04:53:03;;;;;;;3.20;1.73;;;14.50;65.70;;;;;;4984685;28;20038;-87
2021/09/06 04:55:29;;;;;;;4.25;1.75;;;14.50;65.70;;;;;;4984125;28;20073;-87
2021/09/06 04:57:55;;;;;;;6.03;2.20;;;14.50;65.70;;;;;;4984729;28;20038;-88
2021/09/06 05:00:22;;;;;;;3.95;1.92;;;14.60;65.70;;;;;;4999274;28;20030;-88
2021/09/06 05:02:53;;;;;;;3.13;1.58;;;14.70;66.40;;;;;;5000472;28;20035;-87
2021/09/06 05:05:19;;;;;;;2.90;1.98;;;14.80;65.80;;;;;;4984337;28;20473;-87
2021/09/06 05:07:45;;;;;;;2.03;1.52;;;15.10;65.80;;;;;;4985653;28;20091;-88
2021/09/06 05:10:12;;;;;;;2.90;1.80;;;15.40;65.80;;;;;;5001990;28;20084;-89
2021/09/06 05:12:38;;;;;;;3.83;1.60;;;15.70;65.60;;;;;;4985700;28;20035;-89
2021/09/06 05:15:04;;;;;;;3.97;1.60;;;16.00;65.30;;;;;;5005815;28;20057;-92
2021/09/06 05:17:32;;;;;;;4.45;1.40;;;16.30;64.90;;;;;;5004959;28;20505;-93
2021/09/06 05:19:58;;;;;;;1.95;1.40;;;16.60;64.70;;;;;;5017261;28;20034;-92
2021/09/06 05:22:26;;;;;;;1.95;1.38;;;16.90;64.60;;;;;;5002167;28;20034;-88
2021/09/06 05:24:54;;;;;;;2.30;1.10;;;17.20;64.70;;;;;;5013278;28;20089;-88
2021/09/06 05:27:22;;;;;;;1.80;1.30;;;17.50;64.60;;;;;;4985862;28;20026;-90
2021/09/06 05:29:49;;;;;;;2.35;1.15;;;17.70;64.40;;;;;;5003095;28;20065;-89
2021/09/06 05:32:15;;;;;;;1.58;1.10;;;18.00;64.00;;;;;;4987207;28;20041;-91
2021/09/06 05:34:41;;;;;;;5.30;1.23;;;18.20;63.80;;;;;;5003653;28;20054;-92
2021/09/06 05:37:07;;;;;;;2.80;1.50;;;18.40;63.30;;;;;;4987991;28;20035;-91
2021/09/06 05:39:35;;;;;;;2.67;1.42;;;18.70;62.70;;;;;;5003166;28;20042;-91
2021/09/06 05:42:03;;;;;;;4.07;1.10;;;18.80;62.40;;;;;;5001820;28;20104;-91
2021/09/06 05:44:31;;;;;;;1.27;1.17;;;19.10;61.90;;;;;;4987509;28;20409;-91
2021/09/06 05:47:00;;;;;;;1.25;1.05;;;19.20;61.50;;;;;;4987698;28;20037;-91
2021/09/06 05:49:29;;;;;;;2.08;1.00;;;19.40;61.20;;;;;;5000035;28;20417;-89
2021/09/06 05:51:56;;;;;;;1.23;1.10;;;19.60;61.00;;;;;;4983680;28;20061;-89
2021/09/06 05:54:33;;;;;;;2.55;1.20;;;19.70;60.80;;;;;;4993967;28;20034;-91
2021/09/06 05:56:59;;;;;;;1.83;1.10;;;19.90;60.40;;;;;;5000274;28;20041;-90
2021/09/06 05:59:27;;;;;;;2.15;1.20;;;20.10;60.20;;;;;;4998353;28;20042;-89
2021/09/06 06:01:53;;;;;;;2.10;1.10;;;20.30;60.00;;;;;;4999523;28;20030;-90
2021/09/06 06:04:19;;;;;;;1.58;0.98;;;20.50;60.10;;;;;;4979710;28;20641;-91
2021/09/06 06:06:50;;;;;;;1.90;1.23;;;20.70;60.10;;;;;;4990419;28;20034;-88
2021/09/06 06:09:17;;;;;;;1.77;0.90;;;20.90;60.00;;;;;;4976432;28;20042;-88
2021/09/06 06:11:44;;;;;;;2.85;1.30;;;21.10;59.70;;;;;;4979451;28;20034;-88
2021/09/06 06:14:20;;;;;;;4.88;2.60;;;21.40;60.00;;;;;;4999655;28;20027;-87
2021/09/06 06:16:49;;;;;;;3.53;2.97;;;21.60;58.80;;;;;;4998276;28;20042;-87
2021/09/06 06:19:17;;;;;;;3.55;3.10;;;21.90;58.20;;;;;;5004173;28;20030;-88
2021/09/06 06:22:09;;;;;;;5.28;3.28;;;22.20;57.60;;;;;;4976411;28;20043;-86
2021/09/06 06:24:44;;;;;;;3.72;3.22;;;22.50;56.90;;;;;;4980231;28;20131;-88
2021/09/06 06:27:22;;;;;;;3.65;2.67;;;22.80;56.20;;;;;;4992674;28;20445;-88
2021/09/06 06:29:49;;;;;;;3.20;2.72;;;23.00;55.50;;;;;;4990376;28;20027;-89
2021/09/06 06:32:16;;;;;;;2.20;2.00;;;23.10;55.10;;;;;;4989666;28;20093;-88
2021/09/06 06:34:45;;;;;;;4.13;2.33;;;23.00;55.10;;;;;;4992523;28;20073;-89
2021/09/06 06:37:10;;;;;;;4.60;2.10;;;22.90;55.30;;;;;;4990928;28;20551;-93
2021/09/06 06:39:37;;;;;;;2.88;1.67;;;22.80;54.90;;;;;;4989080;28;20540;-87
2021/09/06 06:42:03;;;;;;;3.45;1.40;;;22.70;54.30;;;;;;4990074;28;20030;-87
2021/09/06 06:44:33;;;;;;;3.80;1.30;;;22.60;54.30;;;;;;4989030;28;20041;-89
2021/09/06 06:46:59;;;;;;;3.80;1.73;;;22.60;54.20;;;;;;4987161;28;20029;-88
2021/09/06 06:49:36;;;;;;;2.92;1.40;;;22.60;54.20;;;;;;4989776;28;20085;-87
2021/09/06 06:52:03;;;;;;;2.65;1.35;;;22.60;53.80;;;;;;4991604;28;20026;-81
2021/09/06 06:54:30;;;;;;;4.00;1.45;;;22.60;54.10;;;;;;4970361;28;20034;-83
2021/09/06 06:56:56;;;;;;;3.92;1.50;;;22.70;53.70;;;;;;4994057;28;20073;-84
2021/09/06 06:59:22;;;;;;;5.25;1.73;;;22.70;54.00;;;;;;4977547;28;20093;-84
2021/09/06 07:01:50;;;;;;;4.40;1.63;;;22.70;53.90;;;;;;4994028;28;20031;-85
2021/09/06 07:04:20;;;;;;;1.73;1.45;;;22.80;53.80;;;;;;4989504;28;20034;-85
2021/09/06 07:06:46;;;;;;;1.77;1.23;;;22.70;52.40;;;;;;4969924;28;20030;-84
2021/09/06 07:09:12;;;;;;;2.53;1.35;;;22.80;51.40;;;;;;4961707;28;20137;-85
2021/09/06 07:11:38;;;;;;;4.57;1.27;;;22.70;51.70;;;;;;4959692;28;20042;-84
2021/09/06 07:14:05;;;;;;;5.50;1.88;;;22.80;51.40;;;;;;4989581;28;20130;-84
2021/09/06 07:16:31;;;;;;;2.35;1.75;;;22.80;50.80;;;;;;4995063;28;20043;-84
2021/09/06 07:18:57;;;;;;;1.80;1.15;;;22.90;50.30;;;;;;4978799;28;20519;-84
2021/09/06 07:21:23;;;;;;;2.00;1.33;;;22.90;50.10;;;;;;4977191;28;20034;-84
2021/09/06 07:23:51;;;;;;;1.65;1.35;;;22.90;50.50;;;;;;4978455;28;20034;-87
2021/09/06 07:26:17;;;;;;;2.50;1.10;;;22.80;50.40;;;;;;4995246;28;20034;-84
2021/09/06 07:28:46;;;;;;;1.75;1.00;;;22.70;50.50;;;;;;4992036;28;20441;-85
2021/09/06 07:31:12;;;;;;;2.70;1.13;;;22.60;50.90;;;;;;4993358;28;20038;-86
2021/09/06 07:33:39;;;;;;;2.53;1.25;;;22.40;50.90;;;;;;4994155;28;20042;-88
2021/09/06 07:36:05;;;;;;;1.60;1.15;;;22.40;50.70;;;;;;4994090;28;20096;-87
2021/09/06 07:38:31;;;;;;;2.03;1.17;;;22.40;50.20;;;;;;4996065;28;20042;-86
2021/09/06 07:40:57;;;;;;;2.17;1.10;;;22.30;49.80;;;;;;4996044;28;20092;-87
2021/09/06 07:43:23;;;;;;;3.03;1.13;;;22.40;49.80;;;;;;4975287;28;20065;-83
2021/09/06 07:45:52;;;;;;;3.75;1.50;;;22.40;50.00;;;;;;4993522;28;20031;-86
2021/09/06 07:48:17;;;;;;;1.58;1.10;;;22.50;49.40;;;;;;4969503;28;20433;-86
2021/09/06 07:50:48;;;;;;;3.55;1.25;;;22.50;49.00;;;;;;4968650;28;20129;-84
2021/09/06 07:53:16;;;;;;;4.80;1.42;;;22.30;49.50;;;;;;4978457;28;20035;-89
2021/09/06 07:55:43;;;;;;;2.58;1.35;;;22.30;50.30;;;;;;4975873;28;20030;-91
2021/09/06 07:58:12;;;;;;;4.22;1.45;;;22.20;49.40;;;;;;5000888;28;20039;-90
2021/09/06 08:00:39;;;;;;;4.32;1.27;;;22.10;48.60;;;;;;4985390;28;20069;-90
2021/09/06 08:03:06;;;;;;;2.00;1.30;;;21.90;48.40;;;;;;4996000;28;20069;-92
2021/09/06 08:05:35;;;;;;;1.83;1.10;;;21.80;48.20;;;;;;4993122;28;20039;-89
2021/09/06 08:08:19;;;;;;;2.53;0.88;;;21.70;48.20;;;;;;4987141;28;20034;-84
2021/09/06 08:10:46;;;;;;;3.55;1.33;;;21.50;47.90;;;;;;4995985;28;20034;-89
2021/09/06 08:13:19;;;;;;;1.77;1.20;;;21.30;48.10;;;;;;5007216;28;20523;-93
2021/09/06 08:15:45;;;;;;;1.30;1.02;;;21.20;48.00;;;;;;5175143;23;20038;-90
2021/09/06 08:18:11;;;;;;;4.93;1.33;;;21.20;48.00;;;;;;5025895;28;20045;-88
2021/09/06 08:20:47;;;;;;;2.70;1.45;;;21.10;48.60;;;;;;5024970;28;20037;-89
2021/09/06 08:23:13;;;;;;;1.60;1.23;;;21.10;49.50;;;;;;5040658;28;20186;-92
2021/09/06 08:25:40;;;;;;;5.13;1.00;;;21.10;49.40;;;;;;5024109;28;20357;-91
2021/09/06 08:28:08;;;;;;;4.15;1.13;;;21.00;49.20;;;;;;5023903;28;20071;-92
2021/09/06 08:30:35;;;;;;;3.47;1.05;;;21.00;48.50;;;;;;5023958;28;20040;-89
2021/09/06 08:33:03;;;;;;;2.83;1.23;;;20.90;48.70;;;;;;5022474;28;20036;-86
2021/09/06 08:35:30;;;;;;;2.00;1.10;;;20.90;49.30;;;;;;5023030;28;20049;-87
2021/09/06 08:37:57;;;;;;;1.55;1.23;;;20.80;49.60;;;;;;5040563;28;20535;-88
2021/09/06 08:40:24;;;;;;;3.03;0.93;;;20.70;48.70;;;;;;5022511;28;20067;-85
2021/09/06 08:42:52;;;;;;;1.83;1.25;;;20.70;48.50;;;;;;5022614;28;20025;-82
2021/09/06 08:45:18;;;;;;;2.38;1.25;;;20.60;48.20;;;;;;5040107;28;20095;-89
2021/09/06 08:47:46;;;;;;;3.42;1.00;;;20.60;48.30;;;;;;5022245;28;20116;-82
2021/09/06 08:50:13;;;;;;;2.72;1.10;;;20.50;47.90;;;;;;5031454;28;20045;-82
2021/09/06 08:52:42;;;;;;;6.90;1.27;;;20.40;48.40;;;;;;5029983;28;20044;-83
2021/09/06 08:55:10;;;;;;;7.20;1.50;;;20.40;48.60;;;;;;5019692;28;20052;-85
2021/09/06 08:57:36;;;;;;;3.17;1.50;;;20.40;51.00;;;;;;5036540;28;20136;-86
2021/09/06 09:00:05;;;;;;;3.47;1.13;;;20.40;50.70;;;;;;5038445;28;20025;-89
2021/09/06 09:02:58;;;;;;;3.00;1.20;;;20.30;49.90;;;;;;5053657;28;20046;-89
2021/09/06 09:05:33;;;;;;;2.20;1.20;;;20.30;49.20;;;;;;5038981;28;20033;-84
2021/09/06 09:08:22;;;;;;;5.78;1.25;;;20.20;49.00;;;;;;5043000;28;20035;-88
2021/09/06 09:11:02;;;;;;;2.10;1.33;;;20.10;48.90;;;;;;5040767;28;20123;-88
2021/09/06 09:13:47;;;;;;;1.63;1.30;;;20.00;48.70;;;;;;5037764;28;20124;-86
2021/09/06 09:16:31;;;;;;;4.00;1.05;;;19.90;48.70;;;;;;5010315;28;20051;-87
2021/09/06 09:19:23;;;;;;;1.83;1.00;;;19.80;48.80;;;;;;5039289;28;20124;-86
2021/09/06 09:22:17;;;;;;;2.20;1.02;;;19.80;48.70;;;;;;5039834;28;20075;-86
2021/09/06 09:25:08;;;;;;;5.88;2.05;;;19.70;48.60;;;;;;5038801;28;20037;-88
2021/09/06 09:27:53;;;;;;;4.43;1.92;;;19.70;50.30;;;;;;5023881;28;20025;-86
2021/09/06 09:30:33;;;;;;;4.07;1.48;;;19.70;50.10;;;;;;5024542;28;20037;-84
2021/09/06 09:33:28;;;;;;;3.28;1.50;;;19.70;49.60;;;;;;5036361;28;20496;-90
2021/09/06 09:36:35;;;;;;;2.55;1.20;;;19.70;49.40;;;;;;5041578;28;20033;-92
2021/09/06 09:39:21;;;;;;;2.42;1.55;;;19.60;49.70;;;;;;5022232;28;20087;-87
2021/09/06 09:41:50;;;;;;;2.92;1.30;;;19.70;50.10;;;;;;5039734;28;20527;-86
2021/09/06 09:44:26;;;;;;;2.63;1.52;;;19.70;49.80;;;;;;5041765;28;20116;-86
2021/09/06 09:47:06;;;;;;;3.03;1.45;;;19.70;49.90;;;;;;5038904;28;20083;-88
2021/09/06 09:49:34;;;;;;;3.05;1.58;;;19.60;50.10;;;;;;5038815;28;20041;-88
2021/09/06 09:52:01;;;;;;;2.45;1.27;;;19.60;50.20;;;;;;5037785;28;20025;-83
2021/09/06 09:54:27;;;;;;;6.57;1.83;;;19.50;50.20;;;;;;5037760;28;20431;-84
2021/09/06 09:56:58;;;;;;;1.83;1.10;;;19.40;50.20;;;;;;5039742;28;20049;-84
2021/09/06 09:59:24;;;;;;;1.83;1.30;;;19.40;50.50;;;;;;5041058;28;20041;-83
2021/09/06 10:01:56;;;;;;;2.08;1.40;;;19.40;50.60;;;;;;5043229;28;20124;-85
2021/09/06 10:04:29;;;;;;;2.47;1.00;;;19.40;50.50;;;;;;5041714;28;20496;-85
2021/09/06 10:06:58;;;;;;;2.63;1.20;;;19.30;50.60;;;;;;5023263;28;20416;-83
2021/09/06 10:09:24;;;;;;;2.30;1.27;;;19.30;50.40;;;;;;5021790;28;20041;-84
2021/09/06 10:11:51;;;;;;;1.80;1.40;;;19.30;51.10;;;;;;5029218;28;20042;-83
2021/09/06 10:14:26;;;;;;;2.75;1.67;;;19.30;50.40;;;;;;5030911;28;20416;-86
2021/09/06 10:17:06;;;;;;;5.30;1.35;;;19.30;50.10;;;;;;5006287;28;20059;-85
2021/09/06 10:19:53;;;;;;;3.50;1.27;;;19.30;50.40;;;;;;5013515;28;20408;-84
2021/09/06 10:22:23;;;;;;;3.17;1.42;;;19.20;50.50;;;;;;5036029;28;20057;-84
2021/09/06 10:25:08;;;;;;;1.20;1.10;;;19.20;50.70;;;;;;5028942;28;20431;-86
2021/09/06 10:27:37;;;;;;;2.70;1.00;;;19.20;50.40;;;;;;5014115;28;20037;-87
2021/09/06 10:30:10;;;;;;;3.20;1.10;;;19.20;50.30;;;;;;5018827;28;20047;-87
2021/09/06 10:32:42;;;;;;;2.45;0.90;;;19.20;50.40;;;;;;5029689;28;20091;-88
2021/09/06 10:35:23;;;;;;;2.55;0.80;;;19.10;50.00;;;;;;5017618;28;20037;-85
2021/09/06 10:38:13;;;;;;;2.15;1.17;;;19.10;50.30;;;;;;5010445;28;20038;-84
2021/09/06 10:40:42;;;;;;;1.95;1.13;;;19.00;50.40;;;;;;5026325;28;20412;-83
2021/09/06 10:43:17;;;;;;;1.50;0.98;;;19.00;50.50;;;;;;5010914;28;20029;-83
2021/09/06 10:45:48;;;;;;;2.95;1.77;;;19.00;50.40;;;;;;5052250;28;20068;-91
2021/09/06 10:48:25;;;;;;;2.03;1.10;;;19.00;50.50;;;;;;5022302;28;20420;-89
2021/09/06 10:50:52;;;;;;;1.90;1.20;;;18.90;50.60;;;;;;5030831;28;20040;-90
2021/09/06 10:53:23;;;;;;;2.50;1.02;;;18.90;50.70;;;;;;5036612;28;20030;-83
2021/09/06 10:55:56;;;;;;;2.78;1.00;;;18.90;50.80;;;;;;5048599;28;20405;-88
2021/09/06 10:58:25;;;;;;;1.75;1.20;;;18.90;51.00;;;;;;5047921;28;20089;-90
2021/09/06 11:01:02;;;;;;;2.08;1.13;;;18.90;51.10;;;;;;5047970;28;20060;-88
2021/09/06 11:03:37;;;;;;;2.92;1.27;;;18.80;51.30;;;;;;5017905;28;20025;-87
2021/09/06 11:06:03;;;;;;;1.58;0.95;;;18.90;52.00;;;;;;5020283;28;20447;-89
2021/09/06 11:08:36;;;;;;;1.83;1.35;;;18.90;52.40;;;;;;5034452;28;20404;-85
2021/09/06 11:11:06;;;;;;;3.55;1.30;;;18.90;52.40;;;;;;5030634;28;20085;-84
2021/09/06 11:13:39;;;;;;;4.57;1.88;;;19.00;52.70;;;;;;5024608;28;20030;-83
2021/09/06 11:16:08;;;;;;;4.00;1.75;;;19.00;53.40;;;;;;5032317;28;20101;-84
2021/09/06 11:18:36;;;;;;;4.05;1.70;;;19.10;54.40;;;;;;5018850;28;20496;-84
2021/09/06 11:21:03;;;;;;;7.30;2.30;;;19.10;54.50;;;;;;5033174;28;20424;-84
2021/09/06 11:23:43;;;;;;;8.55;2.40;;;19.10;54.60;;;;;;5017930;28;20033;-83
2021/09/06 11:26:24;;;;;;;3.67;1.95;;;19.20;54.70;;;;;;5016826;28;20065;-85
2021/09/06 11:28:51;;;;;;;5.35;2.28;;;19.20;55.00;;;;;;5033420;28;20056;-85
2021/09/06 11:31:19;;;;;;;4.75;1.80;;;19.30;55.20;;;;;;5026697;28;20037;-81
2021/09/06 11:33:46;;;;;;;12.38;2.42;;;19.30;55.30;;;;;;5024555;28;20099;-82
2021/09/06 11:36:16;;;;;;;7.90;2.45;;;19.30;56.00;;;;;;5028123;28;20034;-85
2021/09/06 11:38:42;;;;;;;10.32;2.13;;;19.40;56.50;;;;;;5015790;28;20034;-84
2021/09/06 11:41:08;;;;;;;11.35;2.30;;;19.40;56.50;;;;;;5023791;28;20033;-81
2021/09/06 11:43:34;;;;;;;9.63;2.10;;;19.40;56.20;;;;;;5026039;28;20036;-82
2021/09/06 11:46:03;;;;;;;5.82;1.92;;;19.50;56.20;;;;;;5026149;28;20037;-79
2021/09/06 11:48:43;;;;;;;10.90;2.33;;;19.50;56.00;;;;;;5033561;28;20030;-83
2021/09/06 11:51:10;;;;;;;6.18;1.90;;;19.50;56.20;;;;;;5038291;28;20068;-82
2021/09/06 11:53:37;;;;;;;7.25;2.13;;;19.60;56.40;;;;;;5039644;28;20124;-82
2021/09/06 11:56:11;;;;;;;4.93;2.03;;;19.60;57.00;;;;;;5039246;28;20072;-82
2021/09/06 11:58:43;;;;;;;4.50;1.80;;;19.60;56.60;;;;;;5039869;28;20046;-82
2021/09/06 12:01:13;;;;;;;4.13;2.40;;;19.60;55.90;;;;;;5039098;28;20459;-82
2021/09/06 12:03:40;;;;;;;4.68;1.92;;;19.60;55.50;;;;;;5038910;28;20033;-82
2021/09/06 12:06:12;;;;;;;10.98;2.05;;;19.60;55.20;;;;;;5038901;28;20080;-82
2021/09/06 12:08:49;;;;;;;3.80;2.00;;;19.70;55.00;;;;;;5038913;28;20041;-82
2021/09/06 12:11:14;;;;;;;2.92;1.75;;;19.70;54.90;;;;;;5040185;28;20065;-81
2021/09/06 12:13:40;;;;;;;4.97;1.65;;;19.70;54.90;;;;;;5038686;28;20068;-82
2021/09/06 12:16:11;;;;;;;4.82;1.58;;;19.70;54.70;;;;;;5039742;28;20132;-82
2021/09/06 12:18:46;;;;;;;5.18;1.75;;;19.70;55.00;;;;;;5038566;28;20050;-81
2021/09/06 12:21:17;;;;;;;;;;;19.70;54.80;;;;;;5038349;28;20034;-81
2021/09/06 12:23:46;;;;;;;3.63;1.95;;;19.70;55.00;;;;;;5022214;28;19913;-81
2021/09/06 12:26:13;;;;;;;8.27;1.67;;;19.70;55.10;;;;;;5038615;28;20033;-81
2021/09/06 12:28:51;;;;;;;2.92;1.50;;;19.70;54.70;;;;;;5039614;28;20466;-81
2021/09/06 12:31:19;;;;;;;3.88;1.50;;;19.70;54.60;;;;;;5038537;28;20045;-81
2021/09/06 12:33:48;;;;;;;4.60;1.70;;;19.70;54.40;;;;;;5039489;28;20041;-81
2021/09/06 12:36:14;;;;;;;2.67;1.52;;;19.70;54.30;;;;;;5039536;28;20049;-81
2021/09/06 12:38:41;;;;;;;1.83;1.23;;;19.70;54.10;;;;;;5021657;28;20114;-83
2021/09/06 12:41:07;;;;;;;3.63;1.50;;;19.80;54.00;;;;;;5038213;28;20444;-81
2021/09/06 12:43:33;;;;;;;2.38;1.63;;;19.70;53.80;;;;;;5037872;28;20500;-81
2021/09/06 12:45:59;;;;;;;4.15;1.33;;;19.70;54.00;;;;;;5040321;28;20037;-81
2021/09/06 12:48:29;;;;;;;2.83;1.42;;;19.70;54.00;;;;;;5041567;28;20033;-81
2021/09/06 12:50:55;;;;;;;4.50;1.55;;;19.70;54.10;;;;;;5022885;28;20613;-81
2021/09/06 12:53:21;;;;;;;2.35;1.27;;;19.70;54.10;;;;;;5037999;28;20060;-81
2021/09/06 12:55:47;;;;;;;1.98;1.02;;;19.70;54.10;;;;;;5037963;28;20038;-80
2021/09/06 12:58:13;;;;;;;2.45;1.48;;;19.70;53.80;;;;;;5038191;28;20021;-82
2021/09/06 13:00:39;;;;;;;2.83;1.30;;;19.70;53.70;;;;;;5037496;28;20029;-81